sensor_id;sensor_type;location;lat;lon;timestamp;P1;durP1;ratioP1;P2;durP2;ratioP2
21402;SDS011;10862;51.886;17.078;2023-01-08T00:01:58;53.10;;;33.07;;
21402;SDS011;10862;51.886;17.078;2023-01-08T00:04:23;58.27;;;36.47;;
21402;SDS011;10862;51.886;17.078;2023-01-08T00:06:49;53.73;;;32.97;;
21402;SDS011;10862;51.886;17.078;2023-01-08T00:09:15;65.60;;;37.93;;
21402;SDS011;10862;51.886;17.078;2023-01-08T00:11:40;111.93;;;66.23;;
21402;SDS011;10862;51.886;17.078;2023-01-08T00:14:07;73.87;;;39.37;;
21402;SDS011;10862;51.886;17.078;2023-01-08T00:16:32;66.50;;;39.40;;
21402;SDS011;10862;51.886;17.078;2023-01-08T00:18:58;57.37;;;36.13;;
21402;SDS011;10862;51.886;17.078;2023-01-08T00:21:24;77.40;;;45.23;;
21402;SDS011;10862;51.886;17.078;2023-01-08T00:23:49;65.93;;;35.93;;
21402;SDS011;10862;51.886;17.078;2023-01-08T00:26:15;62.47;;;35.50;;
21402;SDS011;10862;51.886;17.078;2023-01-08T00:28:41;47.80;;;31.63;;
21402;SDS011;10862;51.886;17.078;2023-01-08T00:31:08;57.07;;;33.80;;
21402;SDS011;10862;51.886;17.078;2023-01-08T00:33:35;51.87;;;33.57;;
21402;SDS011;10862;51.886;17.078;2023-01-08T00:36:09;49.90;;;33.77;;
21402;SDS011;10862;51.886;17.078;2023-01-08T00:38:36;44.83;;;30.30;;
21402;SDS011;10862;51.886;17.078;2023-01-08T00:41:02;54.43;;;31.00;;
21402;SDS011;10862;51.886;17.078;2023-01-08T00:43:28;47.40;;;32.77;;
21402;SDS011;10862;51.886;17.078;2023-01-08T00:45:54;46.67;;;30.13;;
21402;SDS011;10862;51.886;17.078;2023-01-08T00:48:20;50.63;;;30.80;;
21402;SDS011;10862;51.886;17.078;2023-01-08T00:50:49;40.03;;;28.80;;
21402;SDS011;10862;51.886;17.078;2023-01-08T00:53:16;48.27;;;32.20;;
21402;SDS011;10862;51.886;17.078;2023-01-08T00:55:43;47.27;;;30.60;;
21402;SDS011;10862;51.886;17.078;2023-01-08T00:58:09;50.10;;;32.27;;
21402;SDS011;10862;51.886;17.078;2023-01-08T01:00:35;39.53;;;30.20;;
21402;SDS011;10862;51.886;17.078;2023-01-08T01:03:01;40.60;;;30.63;;
21402;SDS011;10862;51.886;17.078;2023-01-08T01:05:27;47.80;;;32.13;;
21402;SDS011;10862;51.886;17.078;2023-01-08T01:07:52;43.30;;;29.07;;
21402;SDS011;10862;51.886;17.078;2023-01-08T01:10:18;37.50;;;27.70;;
21402;SDS011;10862;51.886;17.078;2023-01-08T01:12:44;57.60;;;34.50;;
21402;SDS011;10862;51.886;17.078;2023-01-08T01:15:12;48.23;;;33.43;;
21402;SDS011;10862;51.886;17.078;2023-01-08T01:17:40;47.80;;;31.33;;
21402;SDS011;10862;51.886;17.078;2023-01-08T01:20:08;48.93;;;34.53;;
21402;SDS011;10862;51.886;17.078;2023-01-08T01:22:35;41.50;;;27.83;;
21402;SDS011;10862;51.886;17.078;2023-01-08T01:25:02;38.00;;;29.47;;
21402;SDS011;10862;51.886;17.078;2023-01-08T01:27:29;47.17;;;32.00;;
21402;SDS011;10862;51.886;17.078;2023-01-08T01:29:55;51.87;;;32.77;;
21402;SDS011;10862;51.886;17.078;2023-01-08T01:32:21;56.33;;;35.30;;
21402;SDS011;10862;51.886;17.078;2023-01-08T01:34:46;45.90;;;31.13;;
21402;SDS011;10862;51.886;17.078;2023-01-08T01:37:12;46.10;;;31.83;;
21402;SDS011;10862;51.886;17.078;2023-01-08T01:39:40;43.13;;;30.83;;
21402;SDS011;10862;51.886;17.078;2023-01-08T01:42:16;48.43;;;31.30;;
21402;SDS011;10862;51.886;17.078;2023-01-08T01:45:02;42.37;;;30.57;;
21402;SDS011;10862;51.886;17.078;2023-01-08T01:47:37;47.87;;;30.40;;
21402;SDS011;10862;51.886;17.078;2023-01-08T01:53:12;46.83;;;31.83;;
21402;SDS011;10862;51.886;17.078;2023-01-08T01:55:54;44.37;;;31.03;;
21402;SDS011;10862;51.886;17.078;2023-01-08T01:58:24;40.27;;;29.97;;
21402;SDS011;10862;51.886;17.078;2023-01-08T02:00:52;38.50;;;29.90;;
21402;SDS011;10862;51.886;17.078;2023-01-08T02:03:22;45.70;;;31.13;;
21402;SDS011;10862;51.886;17.078;2023-01-08T02:05:53;52.30;;;33.30;;
21402;SDS011;10862;51.886;17.078;2023-01-08T02:08:53;53.67;;;32.83;;
21402;SDS011;10862;51.886;17.078;2023-01-08T02:20:02;49.37;;;34.33;;
21402;SDS011;10862;51.886;17.078;2023-01-08T02:22:37;61.67;;;37.63;;
21402;SDS011;10862;51.886;17.078;2023-01-08T02:28:35;54.33;;;33.93;;
21402;SDS011;10862;51.886;17.078;2023-01-08T02:31:16;47.57;;;32.27;;
21402;SDS011;10862;51.886;17.078;2023-01-08T02:33:44;45.73;;;33.27;;
21402;SDS011;10862;51.886;17.078;2023-01-08T02:45:08;46.67;;;32.70;;
21402;SDS011;10862;51.886;17.078;2023-01-08T02:47:56;46.23;;;33.50;;
21402;SDS011;10862;51.886;17.078;2023-01-08T02:51:19;35.17;;;27.17;;
21402;SDS011;10862;51.886;17.078;2023-01-08T02:53:30;49.17;;;30.70;;
21402;SDS011;10862;51.886;17.078;2023-01-08T02:56:04;50.17;;;31.63;;
21402;SDS011;10862;51.886;17.078;2023-01-08T02:58:34;52.77;;;34.27;;
21402;SDS011;10862;51.886;17.078;2023-01-08T03:01:03;43.87;;;31.47;;
21402;SDS011;10862;51.886;17.078;2023-01-08T03:03:31;47.50;;;31.20;;
21402;SDS011;10862;51.886;17.078;2023-01-08T03:06:00;50.27;;;35.97;;
21402;SDS011;10862;51.886;17.078;2023-01-08T03:08:28;35.27;;;29.00;;
21402;SDS011;10862;51.886;17.078;2023-01-08T03:10:59;44.43;;;30.90;;
21402;SDS011;10862;51.886;17.078;2023-01-08T03:13:45;48.30;;;34.07;;
21402;SDS011;10862;51.886;17.078;2023-01-08T03:16:33;52.37;;;37.50;;
21402;SDS011;10862;51.886;17.078;2023-01-08T03:19:02;52.40;;;36.90;;
21402;SDS011;10862;51.886;17.078;2023-01-08T03:21:32;49.93;;;33.03;;
21402;SDS011;10862;51.886;17.078;2023-01-08T03:23:59;55.73;;;37.13;;
21402;SDS011;10862;51.886;17.078;2023-01-08T03:26:27;60.33;;;38.40;;
21402;SDS011;10862;51.886;17.078;2023-01-08T03:28:54;52.43;;;35.33;;
21402;SDS011;10862;51.886;17.078;2023-01-08T03:31:22;42.70;;;31.47;;
21402;SDS011;10862;51.886;17.078;2023-01-08T03:33:51;46.33;;;33.47;;
21402;SDS011;10862;51.886;17.078;2023-01-08T03:36:21;53.13;;;35.67;;
21402;SDS011;10862;51.886;17.078;2023-01-08T03:38:54;51.03;;;35.37;;
21402;SDS011;10862;51.886;17.078;2023-01-08T03:41:24;54.80;;;34.67;;
21402;SDS011;10862;51.886;17.078;2023-01-08T03:43:52;48.43;;;32.87;;
21402;SDS011;10862;51.886;17.078;2023-01-08T03:46:21;41.57;;;31.23;;
21402;SDS011;10862;51.886;17.078;2023-01-08T03:48:53;39.37;;;30.30;;
21402;SDS011;10862;51.886;17.078;2023-01-08T03:51:19;52.30;;;32.00;;
21402;SDS011;10862;51.886;17.078;2023-01-08T03:53:45;40.10;;;28.50;;
21402;SDS011;10862;51.886;17.078;2023-01-08T03:56:11;43.77;;;29.07;;
21402;SDS011;10862;51.886;17.078;2023-01-08T03:58:37;51.40;;;33.50;;
21402;SDS011;10862;51.886;17.078;2023-01-08T04:01:03;44.57;;;29.67;;
21402;SDS011;10862;51.886;17.078;2023-01-08T04:03:29;48.50;;;29.67;;
21402;SDS011;10862;51.886;17.078;2023-01-08T04:05:57;49.37;;;30.37;;
21402;SDS011;10862;51.886;17.078;2023-01-08T04:08:23;45.83;;;28.43;;
21402;SDS011;10862;51.886;17.078;2023-01-08T04:10:49;41.40;;;26.73;;
21402;SDS011;10862;51.886;17.078;2023-01-08T04:13:15;46.47;;;31.00;;
21402;SDS011;10862;51.886;17.078;2023-01-08T04:15:45;49.53;;;33.83;;
21402;SDS011;10862;51.886;17.078;2023-01-08T04:18:14;44.63;;;32.53;;
21402;SDS011;10862;51.886;17.078;2023-01-08T04:20:43;32.07;;;28.57;;
21402;SDS011;10862;51.886;17.078;2023-01-08T04:23:10;39.93;;;32.97;;
21402;SDS011;10862;51.886;17.078;2023-01-08T04:25:36;43.53;;;27.27;;
21402;SDS011;10862;51.886;17.078;2023-01-08T04:28:04;50.83;;;29.07;;
21402;SDS011;10862;51.886;17.078;2023-01-08T04:30:30;48.40;;;30.20;;
21402;SDS011;10862;51.886;17.078;2023-01-08T04:32:56;44.27;;;29.03;;
21402;SDS011;10862;51.886;17.078;2023-01-08T04:35:22;45.67;;;29.63;;
21402;SDS011;10862;51.886;17.078;2023-01-08T04:37:47;47.97;;;31.00;;
21402;SDS011;10862;51.886;17.078;2023-01-08T04:40:13;52.60;;;32.10;;
21402;SDS011;10862;51.886;17.078;2023-01-08T04:42:39;52.80;;;32.10;;
21402;SDS011;10862;51.886;17.078;2023-01-08T04:45:05;41.40;;;27.77;;
21402;SDS011;10862;51.886;17.078;2023-01-08T04:47:31;53.20;;;32.03;;
21402;SDS011;10862;51.886;17.078;2023-01-08T04:49:57;50.17;;;32.93;;
21402;SDS011;10862;51.886;17.078;2023-01-08T04:52:23;52.20;;;33.10;;
21402;SDS011;10862;51.886;17.078;2023-01-08T04:54:49;53.30;;;30.80;;
21402;SDS011;10862;51.886;17.078;2023-01-08T04:57:14;31.20;;;24.33;;
21402;SDS011;10862;51.886;17.078;2023-01-08T04:59:40;46.80;;;31.33;;
21402;SDS011;10862;51.886;17.078;2023-01-08T05:02:06;53.30;;;35.70;;
21402;SDS011;10862;51.886;17.078;2023-01-08T05:04:32;49.20;;;32.30;;
21402;SDS011;10862;51.886;17.078;2023-01-08T05:06:57;45.97;;;29.80;;
21402;SDS011;10862;51.886;17.078;2023-01-08T05:09:23;48.87;;;30.03;;
21402;SDS011;10862;51.886;17.078;2023-01-08T05:11:49;50.33;;;32.30;;
21402;SDS011;10862;51.886;17.078;2023-01-08T05:14:14;49.73;;;31.97;;
21402;SDS011;10862;51.886;17.078;2023-01-08T05:16:40;53.53;;;33.43;;
21402;SDS011;10862;51.886;17.078;2023-01-08T05:19:06;49.30;;;32.60;;
21402;SDS011;10862;51.886;17.078;2023-01-08T05:21:32;47.43;;;31.10;;
21402;SDS011;10862;51.886;17.078;2023-01-08T05:23:58;50.67;;;33.17;;
21402;SDS011;10862;51.886;17.078;2023-01-08T05:26:24;51.20;;;32.07;;
21402;SDS011;10862;51.886;17.078;2023-01-08T05:28:49;49.33;;;27.80;;
21402;SDS011;10862;51.886;17.078;2023-01-08T05:31:15;68.73;;;37.80;;
21402;SDS011;10862;51.886;17.078;2023-01-08T05:33:41;55.93;;;34.37;;
21402;SDS011;10862;51.886;17.078;2023-01-08T05:36:07;52.53;;;34.80;;
21402;SDS011;10862;51.886;17.078;2023-01-08T05:38:34;48.20;;;32.03;;
21402;SDS011;10862;51.886;17.078;2023-01-08T05:41:00;50.77;;;33.03;;
21402;SDS011;10862;51.886;17.078;2023-01-08T05:43:25;58.07;;;34.20;;
21402;SDS011;10862;51.886;17.078;2023-01-08T05:45:51;45.50;;;31.80;;
21402;SDS011;10862;51.886;17.078;2023-01-08T05:48:17;66.33;;;37.67;;
21402;SDS011;10862;51.886;17.078;2023-01-08T05:50:43;66.90;;;36.67;;
21402;SDS011;10862;51.886;17.078;2023-01-08T05:53:08;76.37;;;39.87;;
21402;SDS011;10862;51.886;17.078;2023-01-08T05:55:35;54.87;;;38.90;;
21402;SDS011;10862;51.886;17.078;2023-01-08T05:58:01;48.40;;;33.87;;
21402;SDS011;10862;51.886;17.078;2023-01-08T06:00:27;52.00;;;34.57;;
21402;SDS011;10862;51.886;17.078;2023-01-08T06:02:53;57.30;;;37.10;;
21402;SDS011;10862;51.886;17.078;2023-01-08T06:05:19;47.43;;;33.00;;
21402;SDS011;10862;51.886;17.078;2023-01-08T06:07:45;45.43;;;31.63;;
21402;SDS011;10862;51.886;17.078;2023-01-08T06:10:10;52.17;;;36.03;;
21402;SDS011;10862;51.886;17.078;2023-01-08T06:12:36;53.40;;;36.23;;
21402;SDS011;10862;51.886;17.078;2023-01-08T06:15:02;46.50;;;33.83;;
21402;SDS011;10862;51.886;17.078;2023-01-08T06:17:28;59.03;;;37.37;;
21402;SDS011;10862;51.886;17.078;2023-01-08T06:19:54;54.00;;;35.87;;
21402;SDS011;10862;51.886;17.078;2023-01-08T06:22:20;47.83;;;34.53;;
21402;SDS011;10862;51.886;17.078;2023-01-08T06:24:46;49.93;;;33.83;;
21402;SDS011;10862;51.886;17.078;2023-01-08T06:27:11;51.20;;;36.03;;
21402;SDS011;10862;51.886;17.078;2023-01-08T06:29:37;47.63;;;32.87;;
21402;SDS011;10862;51.886;17.078;2023-01-08T06:32:03;53.40;;;33.47;;
21402;SDS011;10862;51.886;17.078;2023-01-08T06:34:29;55.93;;;35.70;;
21402;SDS011;10862;51.886;17.078;2023-01-08T06:36:54;42.67;;;30.47;;
21402;SDS011;10862;51.886;17.078;2023-01-08T06:39:20;51.43;;;34.00;;
21402;SDS011;10862;51.886;17.078;2023-01-08T06:41:46;50.73;;;34.33;;
21402;SDS011;10862;51.886;17.078;2023-01-08T06:44:11;44.67;;;31.13;;
21402;SDS011;10862;51.886;17.078;2023-01-08T06:46:37;38.23;;;25.03;;
21402;SDS011;10862;51.886;17.078;2023-01-08T06:49:07;49.70;;;32.07;;
21402;SDS011;10862;51.886;17.078;2023-01-08T06:51:34;53.43;;;35.80;;
21402;SDS011;10862;51.886;17.078;2023-01-08T06:54:00;42.87;;;30.13;;
21402;SDS011;10862;51.886;17.078;2023-01-08T06:56:26;46.37;;;30.50;;
21402;SDS011;10862;51.886;17.078;2023-01-08T06:58:52;55.77;;;33.90;;
21402;SDS011;10862;51.886;17.078;2023-01-08T07:01:18;49.10;;;29.63;;
21402;SDS011;10862;51.886;17.078;2023-01-08T07:03:44;49.83;;;33.67;;
21402;SDS011;10862;51.886;17.078;2023-01-08T07:06:19;44.37;;;33.40;;
21402;SDS011;10862;51.886;17.078;2023-01-08T07:08:46;52.17;;;35.03;;
21402;SDS011;10862;51.886;17.078;2023-01-08T07:11:12;50.70;;;34.30;;
21402;SDS011;10862;51.886;17.078;2023-01-08T07:13:38;64.50;;;37.77;;
21402;SDS011;10862;51.886;17.078;2023-01-08T07:16:05;53.57;;;33.73;;
21402;SDS011;10862;51.886;17.078;2023-01-08T07:18:35;50.27;;;32.47;;
21402;SDS011;10862;51.886;17.078;2023-01-08T07:21:01;58.40;;;34.33;;
21402;SDS011;10862;51.886;17.078;2023-01-08T07:23:28;56.00;;;34.47;;
21402;SDS011;10862;51.886;17.078;2023-01-08T07:25:53;79.77;;;38.87;;
21402;SDS011;10862;51.886;17.078;2023-01-08T07:28:19;47.43;;;31.40;;
21402;SDS011;10862;51.886;17.078;2023-01-08T07:30:45;48.30;;;31.57;;
21402;SDS011;10862;51.886;17.078;2023-01-08T07:33:11;47.90;;;30.50;;
21402;SDS011;10862;51.886;17.078;2023-01-08T07:35:37;55.03;;;33.63;;
21402;SDS011;10862;51.886;17.078;2023-01-08T07:38:03;51.70;;;32.13;;
21402;SDS011;10862;51.886;17.078;2023-01-08T07:40:29;51.37;;;32.13;;
21402;SDS011;10862;51.886;17.078;2023-01-08T07:42:59;48.07;;;30.77;;
21402;SDS011;10862;51.886;17.078;2023-01-08T07:45:26;45.43;;;30.20;;
21402;SDS011;10862;51.886;17.078;2023-01-08T07:47:52;42.07;;;27.63;;
21402;SDS011;10862;51.886;17.078;2023-01-08T07:50:20;54.70;;;34.07;;
21402;SDS011;10862;51.886;17.078;2023-01-08T07:52:46;54.30;;;34.07;;
21402;SDS011;10862;51.886;17.078;2023-01-08T07:55:11;53.80;;;30.83;;
21402;SDS011;10862;51.886;17.078;2023-01-08T07:57:37;50.30;;;32.20;;
21402;SDS011;10862;51.886;17.078;2023-01-08T08:00:03;50.60;;;33.77;;
21402;SDS011;10862;51.886;17.078;2023-01-08T08:02:29;51.63;;;32.53;;
21402;SDS011;10862;51.886;17.078;2023-01-08T08:04:55;50.23;;;32.17;;
21402;SDS011;10862;51.886;17.078;2023-01-08T08:07:20;42.90;;;29.13;;
21402;SDS011;10862;51.886;17.078;2023-01-08T08:09:46;40.00;;;29.50;;
21402;SDS011;10862;51.886;17.078;2023-01-08T08:12:12;42.33;;;30.23;;
21402;SDS011;10862;51.886;17.078;2023-01-08T08:14:38;52.70;;;32.30;;
21402;SDS011;10862;51.886;17.078;2023-01-08T08:17:04;49.07;;;30.17;;
21402;SDS011;10862;51.886;17.078;2023-01-08T08:19:29;44.20;;;29.33;;
21402;SDS011;10862;51.886;17.078;2023-01-08T08:21:55;39.07;;;26.60;;
21402;SDS011;10862;51.886;17.078;2023-01-08T08:24:21;39.27;;;28.13;;
21402;SDS011;10862;51.886;17.078;2023-01-08T08:26:46;31.50;;;20.77;;
21402;SDS011;10862;51.886;17.078;2023-01-08T08:29:12;43.67;;;27.17;;
21402;SDS011;10862;51.886;17.078;2023-01-08T08:31:38;38.27;;;25.60;;
21402;SDS011;10862;51.886;17.078;2023-01-08T08:34:03;45.60;;;29.83;;
21402;SDS011;10862;51.886;17.078;2023-01-08T08:36:31;43.93;;;29.07;;
21402;SDS011;10862;51.886;17.078;2023-01-08T08:38:57;43.87;;;26.70;;
21402;SDS011;10862;51.886;17.078;2023-01-08T08:41:23;48.47;;;32.77;;
21402;SDS011;10862;51.886;17.078;2023-01-08T08:43:49;155.87;;;66.23;;
21402;SDS011;10862;51.886;17.078;2023-01-08T08:46:15;93.97;;;41.33;;
21402;SDS011;10862;51.886;17.078;2023-01-08T08:48:43;184.50;;;68.60;;
21402;SDS011;10862;51.886;17.078;2023-01-08T08:51:10;65.53;;;36.43;;
21402;SDS011;10862;51.886;17.078;2023-01-08T08:53:36;34.23;;;24.57;;
21402;SDS011;10862;51.886;17.078;2023-01-08T08:56:02;50.67;;;32.43;;
21402;SDS011;10862;51.886;17.078;2023-01-08T08:58:28;36.33;;;26.63;;
21402;SDS011;10862;51.886;17.078;2023-01-08T09:00:53;30.13;;;22.83;;
21402;SDS011;10862;51.886;17.078;2023-01-08T09:06:11;43.03;;;27.13;;
21402;SDS011;10862;51.886;17.078;2023-01-08T09:08:37;28.87;;;22.23;;
21402;SDS011;10862;51.886;17.078;2023-01-08T09:11:03;35.07;;;25.63;;
21402;SDS011;10862;51.886;17.078;2023-01-08T09:13:29;39.40;;;26.70;;
21402;SDS011;10862;51.886;17.078;2023-01-08T09:15:56;40.37;;;28.30;;
21402;SDS011;10862;51.886;17.078;2023-01-08T09:18:23;36.30;;;26.57;;
21402;SDS011;10862;51.886;17.078;2023-01-08T09:20:49;43.03;;;28.33;;
21402;SDS011;10862;51.886;17.078;2023-01-08T09:23:14;40.50;;;26.10;;
21402;SDS011;10862;51.886;17.078;2023-01-08T09:25:40;36.00;;;24.80;;
21402;SDS011;10862;51.886;17.078;2023-01-08T09:28:06;35.43;;;25.10;;
21402;SDS011;10862;51.886;17.078;2023-01-08T09:30:36;37.27;;;26.77;;
21402;SDS011;10862;51.886;17.078;2023-01-08T09:33:02;44.57;;;29.03;;
21402;SDS011;10862;51.886;17.078;2023-01-08T09:35:29;39.67;;;28.20;;
21402;SDS011;10862;51.886;17.078;2023-01-08T09:37:56;47.40;;;29.80;;
21402;SDS011;10862;51.886;17.078;2023-01-08T09:40:23;43.50;;;28.90;;
21402;SDS011;10862;51.886;17.078;2023-01-08T09:42:56;41.57;;;24.20;;
21402;SDS011;10862;51.886;17.078;2023-01-08T09:45:34;35.40;;;25.60;;
21402;SDS011;10862;51.886;17.078;2023-01-08T09:48:09;41.33;;;29.33;;
21402;SDS011;10862;51.886;17.078;2023-01-08T09:50:37;40.07;;;25.83;;
21402;SDS011;10862;51.886;17.078;2023-01-08T09:53:03;44.10;;;26.87;;
21402;SDS011;10862;51.886;17.078;2023-01-08T09:55:31;38.17;;;27.77;;
21402;SDS011;10862;51.886;17.078;2023-01-08T09:57:58;46.70;;;32.97;;
21402;SDS011;10862;51.886;17.078;2023-01-08T10:00:25;38.50;;;25.87;;
21402;SDS011;10862;51.886;17.078;2023-01-08T10:02:53;44.50;;;29.23;;
21402;SDS011;10862;51.886;17.078;2023-01-08T10:05:20;38.40;;;25.10;;
21402;SDS011;10862;51.886;17.078;2023-01-08T10:07:46;40.40;;;28.23;;
21402;SDS011;10862;51.886;17.078;2023-01-08T10:10:19;42.00;;;25.87;;
21402;SDS011;10862;51.886;17.078;2023-01-08T10:12:49;38.53;;;26.20;;
21402;SDS011;10862;51.886;17.078;2023-01-08T10:15:17;26.70;;;21.07;;
21402;SDS011;10862;51.886;17.078;2023-01-08T10:20:22;31.77;;;23.23;;
21402;SDS011;10862;51.886;17.078;2023-01-08T10:22:49;39.00;;;25.30;;
21402;SDS011;10862;51.886;17.078;2023-01-08T10:25:25;37.57;;;25.47;;
21402;SDS011;10862;51.886;17.078;2023-01-08T10:27:53;41.50;;;26.33;;
21402;SDS011;10862;51.886;17.078;2023-01-08T10:32:56;43.03;;;26.80;;
21402;SDS011;10862;51.886;17.078;2023-01-08T10:35:34;41.40;;;25.53;;
21402;SDS011;10862;51.886;17.078;2023-01-08T10:38:03;37.77;;;25.17;;
21402;SDS011;10862;51.886;17.078;2023-01-08T10:43:34;38.70;;;27.30;;
21402;SDS011;10862;51.886;17.078;2023-01-08T10:46:12;50.33;;;31.07;;
21402;SDS011;10862;51.886;17.078;2023-01-08T10:48:52;57.17;;;33.33;;
21402;SDS011;10862;51.886;17.078;2023-01-08T10:51:25;50.57;;;34.20;;
21402;SDS011;10862;51.886;17.078;2023-01-08T10:53:54;51.80;;;29.30;;
21402;SDS011;10862;51.886;17.078;2023-01-08T10:56:29;52.77;;;30.83;;
21402;SDS011;10862;51.886;17.078;2023-01-08T10:59:04;44.80;;;28.13;;
21402;SDS011;10862;51.886;17.078;2023-01-08T11:01:30;47.47;;;27.83;;
21402;SDS011;10862;51.886;17.078;2023-01-08T11:06:33;30.07;;;21.93;;
21402;SDS011;10862;51.886;17.078;2023-01-08T11:09:05;42.73;;;25.37;;
21402;SDS011;10862;51.886;17.078;2023-01-08T11:11:58;51.77;;;31.60;;
21402;SDS011;10862;51.886;17.078;2023-01-08T11:14:31;48.23;;;31.03;;
21402;SDS011;10862;51.886;17.078;2023-01-08T11:16:59;54.97;;;31.37;;
21402;SDS011;10862;51.886;17.078;2023-01-08T11:19:32;60.07;;;31.33;;
21402;SDS011;10862;51.886;17.078;2023-01-08T11:22:00;59.27;;;30.60;;
21402;SDS011;10862;51.886;17.078;2023-01-08T11:24:31;41.17;;;26.40;;
21402;SDS011;10862;51.886;17.078;2023-01-08T11:27:02;93.37;;;45.23;;
21402;SDS011;10862;51.886;17.078;2023-01-08T11:37:40;48.47;;;29.60;;
21402;SDS011;10862;51.886;17.078;2023-01-08T11:40:14;62.50;;;35.00;;
21402;SDS011;10862;51.886;17.078;2023-01-08T11:42:46;63.33;;;35.57;;
21402;SDS011;10862;51.886;17.078;2023-01-08T12:04:35;80.83;;;39.73;;
21402;SDS011;10862;51.886;17.078;2023-01-08T12:07:18;155.30;;;59.53;;
21402;SDS011;10862;51.886;17.078;2023-01-08T12:10:04;229.53;;;92.37;;
21402;SDS011;10862;51.886;17.078;2023-01-08T12:13:22;155.67;;;59.57;;
21402;SDS011;10862;51.886;17.078;2023-01-08T12:23:46;51.50;;;30.77;;
21402;SDS011;10862;51.886;17.078;2023-01-08T12:26:40;53.73;;;30.50;;
21402;SDS011;10862;51.886;17.078;2023-01-08T12:29:25;47.37;;;31.13;;
21402;SDS011;10862;51.886;17.078;2023-01-08T12:34:55;43.33;;;26.03;;
21402;SDS011;10862;51.886;17.078;2023-01-08T12:37:30;35.67;;;23.07;;
21402;SDS011;10862;51.886;17.078;2023-01-08T12:40:14;47.47;;;27.93;;
21402;SDS011;10862;51.886;17.078;2023-01-08T12:42:42;61.93;;;34.33;;
21402;SDS011;10862;51.886;17.078;2023-01-08T12:45:16;43.57;;;27.47;;
21402;SDS011;10862;51.886;17.078;2023-01-08T12:47:55;64.47;;;36.50;;
21402;SDS011;10862;51.886;17.078;2023-01-08T12:59:14;48.37;;;28.33;;
21402;SDS011;10862;51.886;17.078;2023-01-08T13:04:42;63.00;;;38.50;;
21402;SDS011;10862;51.886;17.078;2023-01-08T13:07:11;97.70;;;52.10;;
21402;SDS011;10862;51.886;17.078;2023-01-08T13:10:00;105.03;;;54.47;;
21402;SDS011;10862;51.886;17.078;2023-01-08T13:12:37;111.57;;;53.47;;
21402;SDS011;10862;51.886;17.078;2023-01-08T13:15:16;86.50;;;41.37;;
21402;SDS011;10862;51.886;17.078;2023-01-08T13:17:49;173.77;;;69.23;;
21402;SDS011;10862;51.886;17.078;2023-01-08T13:20:19;165.70;;;65.70;;
21402;SDS011;10862;51.886;17.078;2023-01-08T13:22:51;73.60;;;36.67;;
21402;SDS011;10862;51.886;17.078;2023-01-08T13:27:46;65.53;;;35.67;;
21402;SDS011;10862;51.886;17.078;2023-01-08T13:38:38;120.20;;;63.50;;
21402;SDS011;10862;51.886;17.078;2023-01-08T13:41:04;74.40;;;36.50;;
21402;SDS011;10862;51.886;17.078;2023-01-08T13:43:39;236.77;;;115.23;;
21402;SDS011;10862;51.886;17.078;2023-01-08T13:46:15;104.17;;;57.67;;
21402;SDS011;10862;51.886;17.078;2023-01-08T13:51:47;413.13;;;108.60;;
21402;SDS011;10862;51.886;17.078;2023-01-08T13:56:42;119.47;;;41.13;;
21402;SDS011;10862;51.886;17.078;2023-01-08T13:59:20;139.07;;;50.77;;
21402;SDS011;10862;51.886;17.078;2023-01-08T14:05:21;133.30;;;55.30;;
21402;SDS011;10862;51.886;17.078;2023-01-08T14:07:52;168.90;;;64.90;;
21402;SDS011;10862;51.886;17.078;2023-01-08T14:10:19;316.43;;;102.53;;
21402;SDS011;10862;51.886;17.078;2023-01-08T14:12:45;124.70;;;54.20;;
21402;SDS011;10862;51.886;17.078;2023-01-08T14:15:16;381.63;;;119.00;;
21402;SDS011;10862;51.886;17.078;2023-01-08T14:17:49;380.57;;;116.80;;
21402;SDS011;10862;51.886;17.078;2023-01-08T14:20:23;277.63;;;91.57;;
21402;SDS011;10862;51.886;17.078;2023-01-08T14:23:06;346.57;;;117.43;;
21402;SDS011;10862;51.886;17.078;2023-01-08T14:25:35;388.50;;;111.77;;
21402;SDS011;10862;51.886;17.078;2023-01-08T14:28:02;113.07;;;46.77;;
21402;SDS011;10862;51.886;17.078;2023-01-08T14:30:29;162.17;;;57.70;;
21402;SDS011;10862;51.886;17.078;2023-01-08T14:32:56;135.70;;;60.17;;
21402;SDS011;10862;51.886;17.078;2023-01-08T14:35:30;92.03;;;44.07;;
21402;SDS011;10862;51.886;17.078;2023-01-08T14:37:59;104.33;;;57.20;;
21402;SDS011;10862;51.886;17.078;2023-01-08T14:40:27;53.83;;;30.73;;
21402;SDS011;10862;51.886;17.078;2023-01-08T14:42:55;65.20;;;31.47;;
21402;SDS011;10862;51.886;17.078;2023-01-08T14:45:22;53.07;;;29.57;;
21402;SDS011;10862;51.886;17.078;2023-01-08T14:47:56;41.10;;;21.97;;
21402;SDS011;10862;51.886;17.078;2023-01-08T14:52:54;58.63;;;30.77;;
21402;SDS011;10862;51.886;17.078;2023-01-08T14:55:28;56.27;;;30.97;;
21402;SDS011;10862;51.886;17.078;2023-01-08T14:57:56;99.17;;;46.30;;
21402;SDS011;10862;51.886;17.078;2023-01-08T15:00:25;143.57;;;63.97;;
21402;SDS011;10862;51.886;17.078;2023-01-08T15:02:53;139.93;;;65.77;;
21402;SDS011;10862;51.886;17.078;2023-01-08T15:05:29;151.23;;;69.10;;
21402;SDS011;10862;51.886;17.078;2023-01-08T15:08:03;138.73;;;56.50;;
21402;SDS011;10862;51.886;17.078;2023-01-08T15:10:59;87.47;;;42.00;;
21402;SDS011;10862;51.886;17.078;2023-01-08T15:13:44;80.47;;;37.67;;
21402;SDS011;10862;51.886;17.078;2023-01-08T15:21:34;46.40;;;24.40;;
21402;SDS011;10862;51.886;17.078;2023-01-08T15:24:00;48.10;;;26.13;;
21402;SDS011;10862;51.886;17.078;2023-01-08T15:26:28;64.83;;;31.83;;
21402;SDS011;10862;51.886;17.078;2023-01-08T15:28:58;34.90;;;18.80;;
21402;SDS011;10862;51.886;17.078;2023-01-08T15:31:32;41.73;;;20.77;;
21402;SDS011;10862;51.886;17.078;2023-01-08T15:34:12;53.37;;;29.20;;
21402;SDS011;10862;51.886;17.078;2023-01-08T15:36:38;634.77;;;226.43;;
21402;SDS011;10862;51.886;17.078;2023-01-08T15:39:05;636.37;;;214.67;;
21402;SDS011;10862;51.886;17.078;2023-01-08T15:41:34;168.07;;;58.80;;
21402;SDS011;10862;51.886;17.078;2023-01-08T15:44:19;164.87;;;59.83;;
21402;SDS011;10862;51.886;17.078;2023-01-08T15:46:46;97.20;;;43.83;;
21402;SDS011;10862;51.886;17.078;2023-01-08T15:49:11;102.47;;;41.20;;
21402;SDS011;10862;51.886;17.078;2023-01-08T15:51:40;177.23;;;63.73;;
21402;SDS011;10862;51.886;17.078;2023-01-08T15:54:10;86.70;;;39.67;;
21402;SDS011;10862;51.886;17.078;2023-01-08T15:56:37;82.07;;;39.13;;
21402;SDS011;10862;51.886;17.078;2023-01-08T15:59:03;172.13;;;60.30;;
21402;SDS011;10862;51.886;17.078;2023-01-08T16:01:29;563.60;;;153.50;;
21402;SDS011;10862;51.886;17.078;2023-01-08T16:03:56;216.73;;;67.60;;
21402;SDS011;10862;51.886;17.078;2023-01-08T16:06:22;220.40;;;74.13;;
21402;SDS011;10862;51.886;17.078;2023-01-08T16:08:48;1036.07;;;358.17;;
21402;SDS011;10862;51.886;17.078;2023-01-08T16:11:17;675.27;;;228.23;;
21402;SDS011;10862;51.886;17.078;2023-01-08T16:13:44;664.97;;;198.60;;